createdAt,value
2019-02-16T00:00:22.508Z,3.00
2019-02-16T00:01:23.631Z,3.50
2019-02-16T00:02:26.649Z,2.62
2019-02-16T00:03:27.782Z,2.40
2019-02-16T00:04:28.901Z,2.47
2019-02-16T00:05:30.018Z,3.58
2019-02-16T00:06:31.137Z,2.98
2019-02-16T00:07:32.256Z,2.20
2019-02-16T00:08:33.386Z,2.62
2019-02-16T00:09:34.525Z,2.77
2019-02-16T00:10:37.186Z,5.08
2019-02-16T00:11:38.308Z,2.20
2019-02-16T00:12:39.471Z,3.25
2019-02-16T00:13:40.604Z,2.67
2019-02-16T00:14:41.722Z,2.67
2019-02-16T00:15:42.833Z,2.55
2019-02-16T00:16:43.948Z,2.92
2019-02-16T00:17:45.077Z,3.12
2019-02-16T00:18:46.209Z,2.33
2019-02-16T00:19:47.329Z,3.30
2019-02-16T00:20:48.602Z,3.58
2019-02-16T00:21:49.712Z,3.02
2019-02-16T00:22:50.934Z,2.15
2019-02-16T00:23:52.170Z,2.47
2019-02-16T00:24:53.300Z,3.08
2019-02-16T00:25:54.520Z,3.15
2019-02-16T00:26:55.643Z,3.10
2019-02-16T00:27:56.865Z,2.72
2019-02-16T00:28:57.997Z,4.20
2019-02-16T00:29:59.117Z,3.12
2019-02-16T00:31:00.236Z,4.42
2019-02-16T00:32:01.352Z,2.08
2019-02-16T00:33:02.470Z,3.17
2019-02-16T00:34:03.592Z,2.50
2019-02-16T00:35:04.801Z,4.90
2019-02-16T00:36:05.960Z,2.62
2019-02-16T00:37:07.175Z,2.65
2019-02-16T00:38:08.294Z,2.87
2019-02-16T00:39:09.421Z,3.27
2019-02-16T00:40:10.541Z,2.22
2019-02-16T00:41:11.761Z,3.20
2019-02-16T00:42:12.885Z,2.20
2019-02-16T00:43:14.001Z,2.75
2019-02-16T00:44:15.129Z,2.30
2019-02-16T00:45:16.247Z,2.20
2019-02-16T00:46:17.378Z,2.95
2019-02-16T00:47:18.595Z,3.30
2019-02-16T00:48:19.709Z,1.90
2019-02-16T00:49:20.938Z,3.45
2019-02-16T00:50:22.056Z,3.27
2019-02-16T00:51:23.272Z,2.37
2019-02-16T00:52:24.669Z,3.17
2019-02-16T00:53:25.786Z,3.85
2019-02-16T00:54:26.918Z,1.87
2019-02-16T00:55:28.141Z,2.95
2019-02-16T00:56:29.256Z,2.50
2019-02-16T00:57:30.374Z,2.33
2019-02-16T00:58:31.600Z,2.67
2019-02-16T00:59:32.731Z,3.20
2019-02-16T01:00:33.946Z,2.55
2019-02-16T01:01:35.066Z,2.15
2019-02-16T01:02:36.181Z,3.17
2019-02-16T01:03:37.297Z,1.95
2019-02-16T01:04:39.241Z,3.20
2019-02-16T01:05:40.556Z,2.27
2019-02-16T01:06:41.669Z,2.25
2019-02-16T01:07:42.788Z,2.20
2019-02-16T01:08:43.999Z,2.45
2019-02-16T01:09:45.234Z,3.37
2019-02-16T01:10:46.454Z,3.08
2019-02-16T01:11:47.568Z,3.00
2019-02-16T01:12:48.781Z,2.75
2019-02-16T01:13:49.907Z,3.12
2019-02-16T01:14:51.137Z,2.67
2019-02-16T01:15:52.261Z,2.75
2019-02-16T01:16:53.376Z,2.30
2019-02-16T01:17:54.502Z,3.27
2019-02-16T01:18:55.719Z,2.30
2019-02-16T01:19:56.848Z,2.42
2019-02-16T01:20:57.975Z,1.98
2019-02-16T01:21:59.084Z,3.83
2019-02-16T01:23:00.202Z,3.17
2019-02-16T01:24:01.315Z,1.75
2019-02-16T01:25:02.746Z,4.95
2019-02-16T01:26:04.060Z,2.02
2019-02-16T01:27:05.173Z,2.02
2019-02-16T01:28:06.292Z,1.80
2019-02-16T01:29:07.516Z,3.60
2019-02-16T01:30:08.886Z,2.47
2019-02-16T01:31:10.013Z,2.47
2019-02-16T01:32:11.130Z,1.62
2019-02-16T01:33:12.243Z,2.65
2019-02-16T01:34:13.358Z,2.20
2019-02-16T01:35:14.518Z,1.92
2019-02-16T01:36:15.740Z,2.65
2019-02-16T01:37:16.856Z,1.42
2019-02-16T01:38:17.972Z,2.22
2019-02-16T01:39:19.191Z,1.92
2019-02-16T01:40:20.319Z,1.70
2019-02-16T01:41:21.429Z,1.52
2019-02-16T01:42:22.709Z,2.08
2019-02-16T01:43:23.865Z,2.12
2019-02-16T01:44:24.982Z,1.47
2019-02-16T01:45:26.148Z,1.62
2019-02-16T01:46:27.268Z,3.05
2019-02-16T01:47:28.512Z,1.92
2019-02-16T01:48:29.752Z,1.87
2019-02-16T01:49:30.872Z,1.30
2019-02-16T01:50:31.992Z,1.92
2019-02-16T01:51:33.104Z,1.65
2019-02-16T01:52:34.216Z,3.05
2019-02-16T01:53:35.332Z,2.72
2019-02-16T01:54:36.650Z,1.82
2019-02-16T01:55:37.896Z,1.55
2019-02-16T01:56:39.011Z,2.33
2019-02-16T01:57:40.236Z,2.75
2019-02-16T01:58:41.350Z,1.10
2019-02-16T01:59:42.465Z,3.33
2019-02-16T02:00:43.583Z,1.67
2019-02-16T02:01:44.770Z,1.50
2019-02-16T02:02:45.885Z,2.12
2019-02-16T02:03:46.997Z,2.25
2019-02-16T02:04:48.219Z,1.65
2019-02-16T02:05:49.353Z,1.50
2019-02-16T02:06:50.580Z,1.72
2019-02-16T02:07:51.697Z,2.20
2019-02-16T02:08:52.835Z,1.45
2019-02-16T02:09:53.928Z,1.45
2019-02-16T02:10:55.053Z,1.30
2019-02-16T02:11:56.177Z,2.02
2019-02-16T02:12:57.294Z,1.72
2019-02-16T02:13:58.409Z,1.62
2019-02-16T02:14:59.521Z,1.45
2019-02-16T02:16:00.646Z,2.25
2019-02-16T02:17:01.865Z,2.17
2019-02-16T02:18:02.993Z,1.52
2019-02-16T02:19:04.105Z,0.93
2019-02-16T02:20:07.224Z,2.12
2019-02-16T02:21:08.361Z,1.92
2019-02-16T02:22:09.473Z,1.32
2019-02-16T02:23:10.689Z,1.02
2019-02-16T02:24:11.808Z,1.35
2019-02-16T02:25:12.924Z,1.92
2019-02-16T02:26:14.203Z,1.17
2019-02-16T02:27:15.314Z,1.87
2019-02-16T02:28:16.426Z,2.62
2019-02-16T02:29:17.543Z,1.57
2019-02-16T02:30:18.655Z,1.45
2019-02-16T02:31:19.779Z,1.17
2019-02-16T02:32:20.901Z,2.25
2019-02-16T02:33:22.149Z,1.92
2019-02-16T02:34:23.344Z,1.70
2019-02-16T02:35:24.573Z,2.00
2019-02-16T02:36:25.703Z,1.02
2019-02-16T02:37:26.816Z,1.82
2019-02-16T02:38:27.940Z,2.20
2019-02-16T02:39:29.050Z,1.87
2019-02-16T02:40:30.165Z,1.22
2019-02-16T02:41:31.297Z,1.75
2019-02-16T02:42:32.425Z,1.22
2019-02-16T02:43:33.542Z,1.87
2019-02-16T02:44:34.663Z,2.15
2019-02-16T02:45:35.774Z,2.17
2019-02-16T02:46:36.941Z,1.92
2019-02-16T02:47:38.049Z,1.40
2019-02-16T02:48:39.171Z,0.80
2019-02-16T02:49:40.286Z,1.20
2019-02-16T02:50:41.517Z,2.08
2019-02-16T02:51:51.738Z,1.65
2019-02-16T02:52:45.670Z,1.62
2019-02-16T02:53:46.850Z,0.72
2019-02-16T02:54:48.100Z,1.45
2019-02-16T02:55:49.226Z,1.40
2019-02-16T02:56:50.354Z,1.67
2019-02-16T02:57:51.471Z,1.45
2019-02-16T02:58:52.585Z,0.70
2019-02-16T02:59:53.709Z,1.00
2019-02-16T03:00:54.821Z,1.12
2019-02-16T03:01:55.977Z,1.65
2019-02-16T03:02:57.099Z,1.02
2019-02-16T03:03:58.212Z,1.75
2019-02-16T03:04:59.338Z,1.22
2019-02-16T03:06:00.453Z,1.12
2019-02-16T03:07:01.612Z,1.67
2019-02-16T03:08:02.865Z,1.35
2019-02-16T03:09:04.373Z,1.98
2019-02-16T03:10:05.987Z,2.45
2019-02-16T03:11:07.104Z,1.57
2019-02-16T03:12:08.336Z,1.42
2019-02-16T03:13:09.459Z,2.40
2019-02-16T03:14:10.578Z,1.07
2019-02-16T03:15:11.696Z,1.42
2019-02-16T03:16:12.813Z,2.55
2019-02-16T03:17:13.947Z,2.00
2019-02-16T03:18:15.182Z,0.80
2019-02-16T03:19:16.302Z,0.78
2019-02-16T03:20:17.424Z,0.80
2019-02-16T03:21:18.544Z,1.45
2019-02-16T03:22:19.676Z,0.90
2019-02-16T03:23:20.901Z,0.95
2019-02-16T03:24:22.029Z,2.00
2019-02-16T03:25:23.285Z,1.80
2019-02-16T03:26:36.424Z,1.55
2019-02-16T03:27:47.189Z,0.98
2019-02-16T03:28:54.764Z,0.78
2019-02-16T03:30:34.520Z,1.10
2019-02-16T03:31:57.424Z,1.82
2019-02-16T03:33:04.699Z,1.00
2019-02-16T03:34:18.626Z,2.25
2019-02-16T03:35:39.898Z,1.72
2019-02-16T03:36:44.618Z,1.00
2019-02-16T03:37:52.345Z,1.00
2019-02-16T03:38:57.182Z,1.35
2019-02-16T03:39:58.300Z,0.75
2019-02-16T03:40:59.415Z,0.78
2019-02-16T03:42:00.533Z,1.52
2019-02-16T03:43:01.645Z,1.37
2019-02-16T03:44:02.766Z,0.90
2019-02-16T03:45:05.777Z,0.98
2019-02-16T03:46:07.015Z,1.45
2019-02-16T03:47:08.125Z,1.95
2019-02-16T03:48:09.241Z,0.85
2019-02-16T03:49:10.473Z,1.65
2019-02-16T03:50:11.691Z,0.93
2019-02-16T03:51:12.904Z,0.90
2019-02-16T03:52:14.416Z,0.90
2019-02-16T03:53:15.641Z,0.85
2019-02-16T03:54:22.138Z,2.15
2019-02-16T03:55:23.253Z,0.55
2019-02-16T03:56:24.366Z,0.88
2019-02-16T03:57:25.487Z,1.40
2019-02-16T03:58:28.402Z,1.40
2019-02-16T03:59:29.530Z,1.35
2019-02-16T04:00:30.654Z,1.07
2019-02-16T04:01:31.774Z,0.80
2019-02-16T04:02:32.891Z,1.77
2019-02-16T04:03:34.116Z,0.70
2019-02-16T04:04:35.256Z,0.72
2019-02-16T04:05:36.362Z,1.62
2019-02-16T04:06:37.475Z,1.22
2019-02-16T04:07:38.589Z,1.57
2019-02-16T04:08:39.806Z,1.90
2019-02-16T04:09:40.938Z,0.80
2019-02-16T04:10:42.148Z,1.02
2019-02-16T04:11:43.268Z,1.00
2019-02-16T04:12:44.386Z,2.08
2019-02-16T04:13:45.605Z,0.80
2019-02-16T04:14:46.741Z,1.30
2019-02-16T04:15:48.185Z,1.60
2019-02-16T04:16:49.367Z,0.50
2019-02-16T04:17:50.489Z,0.93
2019-02-16T04:18:51.617Z,0.60
2019-02-16T04:19:52.867Z,1.00
2019-02-16T04:20:53.983Z,1.00
2019-02-16T04:21:55.089Z,0.80
2019-02-16T04:22:56.207Z,2.02
2019-02-16T04:23:57.333Z,0.65
2019-02-16T04:24:58.462Z,1.42
2019-02-16T04:25:59.578Z,0.68
2019-02-16T04:27:00.719Z,0.62
2019-02-16T04:28:01.834Z,0.93
2019-02-16T04:29:02.948Z,1.27
2019-02-16T04:30:05.818Z,0.98
2019-02-16T04:31:06.925Z,0.88
2019-02-16T04:32:08.143Z,1.67
2019-02-16T04:33:09.427Z,1.10
2019-02-16T04:34:10.563Z,0.95
2019-02-16T04:35:11.692Z,1.67
2019-02-16T04:36:12.810Z,0.98
2019-02-16T04:37:13.938Z,1.35
2019-02-16T04:38:15.054Z,0.80
2019-02-16T04:39:16.172Z,0.82
2019-02-16T04:40:17.403Z,1.42
2019-02-16T04:41:18.564Z,0.90
2019-02-16T04:42:19.739Z,1.37
2019-02-16T04:43:20.854Z,0.70
2019-02-16T04:44:22.081Z,1.22
2019-02-16T04:45:23.211Z,0.82
2019-02-16T04:46:24.339Z,0.93
2019-02-16T04:47:25.461Z,0.90
2019-02-16T04:48:26.577Z,0.78
2019-02-16T04:49:27.696Z,0.95
2019-02-16T04:50:28.853Z,0.57
2019-02-16T04:51:29.997Z,0.53
2019-02-16T04:52:34.676Z,1.47
2019-02-16T04:53:34.253Z,1.00
2019-02-16T04:54:35.369Z,0.47
2019-02-16T04:55:36.508Z,0.70
2019-02-16T04:56:37.625Z,1.10
2019-02-16T04:57:38.745Z,1.10
2019-02-16T04:58:39.867Z,2.12
2019-02-16T04:59:40.981Z,1.27
2019-02-16T05:00:42.107Z,0.80
2019-02-16T05:01:43.223Z,0.82
2019-02-16T05:02:44.346Z,0.43
2019-02-16T05:03:45.995Z,1.80
2019-02-16T05:04:49.025Z,0.70
2019-02-16T05:05:50.154Z,0.50
2019-02-16T05:06:51.269Z,0.90
2019-02-16T05:07:52.388Z,1.00
2019-02-16T05:08:53.506Z,0.53
2019-02-16T05:09:54.620Z,0.82
2019-02-16T05:10:55.748Z,1.32
2019-02-16T05:11:56.861Z,1.22
2019-02-16T05:12:57.977Z,0.57
2019-02-16T05:13:59.197Z,0.60
2019-02-16T05:15:00.331Z,1.32
2019-02-16T05:16:01.545Z,0.50
2019-02-16T05:17:02.657Z,0.78
2019-02-16T05:18:03.906Z,1.00
2019-02-16T05:19:05.025Z,1.95
2019-02-16T05:20:06.254Z,0.98
2019-02-16T05:21:07.382Z,1.25
2019-02-16T05:22:08.501Z,0.75
2019-02-16T05:23:09.618Z,0.50
2019-02-16T05:24:10.841Z,0.98
2019-02-16T05:25:12.060Z,1.12
2019-02-16T05:26:13.194Z,0.88
2019-02-16T05:27:14.319Z,0.60
2019-02-16T05:28:15.433Z,1.25
2019-02-16T05:29:16.562Z,0.57
2019-02-16T05:30:17.674Z,0.70
2019-02-16T05:31:18.806Z,0.55
2019-02-16T05:32:19.918Z,0.50
2019-02-16T05:33:21.032Z,0.60
2019-02-16T05:34:22.148Z,0.82
2019-02-16T05:35:23.283Z,0.62
2019-02-16T05:36:24.536Z,1.30
2019-02-16T05:37:25.753Z,0.82
2019-02-16T05:38:26.873Z,2.47
2019-02-16T05:39:27.992Z,0.65
2019-02-16T05:40:29.104Z,0.50
2019-02-16T05:41:30.241Z,0.65
2019-02-16T05:42:31.352Z,1.85
2019-02-16T05:43:32.469Z,2.37
2019-02-16T05:44:33.584Z,0.42
2019-02-16T05:45:34.802Z,0.70
2019-02-16T05:46:35.943Z,0.30
2019-02-16T05:47:37.054Z,0.85
2019-02-16T05:48:38.172Z,0.82
2019-02-16T05:49:39.494Z,1.15
2019-02-16T05:50:40.635Z,0.50
2019-02-16T05:51:41.731Z,0.68
2019-02-16T05:52:42.849Z,0.30
2019-02-16T05:53:44.074Z,0.23
2019-02-16T05:54:45.191Z,0.45
2019-02-16T05:55:46.299Z,0.68
2019-02-16T05:56:47.428Z,0.68
2019-02-16T05:57:48.540Z,1.47
2019-02-16T05:58:49.699Z,0.23
2019-02-16T05:59:50.877Z,1.35
2019-02-16T06:00:51.997Z,0.50
2019-02-16T06:01:54.270Z,0.68
2019-02-16T06:02:55.644Z,0.40
2019-02-16T06:03:56.760Z,0.55
2019-02-16T06:04:57.878Z,0.62
2019-02-16T06:05:58.981Z,0.40
2019-02-16T06:07:00.209Z,0.47
2019-02-16T06:08:02.465Z,0.70
2019-02-16T06:09:04.069Z,0.82
2019-02-16T06:10:06.661Z,0.80
2019-02-16T06:11:07.761Z,0.50
2019-02-16T06:12:08.915Z,1.65
2019-02-16T06:13:10.026Z,0.82
2019-02-16T06:14:11.144Z,0.47
2019-02-16T06:15:12.359Z,0.72
2019-02-16T06:16:13.480Z,0.40
2019-02-16T06:17:14.608Z,0.70
2019-02-16T06:18:15.732Z,0.75
2019-02-16T06:19:16.868Z,1.10
2019-02-16T06:20:17.987Z,0.53
2019-02-16T06:21:19.108Z,0.85
2019-02-16T06:22:20.250Z,0.60
2019-02-16T06:23:21.359Z,0.50
2019-02-16T06:24:22.475Z,0.57
2019-02-16T06:25:23.602Z,0.70
2019-02-16T06:26:24.828Z,0.50
2019-02-16T06:27:25.981Z,0.60
2019-02-16T06:28:27.103Z,0.68
2019-02-16T06:29:28.220Z,0.50
2019-02-16T06:30:29.337Z,0.45
2019-02-16T06:31:30.456Z,0.60
2019-02-16T06:32:31.604Z,1.65
2019-02-16T06:33:32.718Z,0.55
2019-02-16T06:34:33.830Z,0.95
2019-02-16T06:35:36.853Z,0.30
2019-02-16T06:36:38.174Z,0.33
2019-02-16T06:37:39.300Z,0.60
2019-02-16T06:38:40.416Z,0.70
2019-02-16T06:39:41.540Z,0.40
2019-02-16T06:40:42.936Z,1.72
2019-02-16T06:41:44.049Z,0.93
2019-02-16T06:42:45.178Z,0.60
2019-02-16T06:43:46.297Z,0.60
2019-02-16T06:44:47.419Z,0.65
2019-02-16T06:45:48.534Z,0.42
2019-02-16T06:46:49.663Z,0.88
2019-02-16T06:47:50.788Z,1.50
2019-02-16T06:48:51.904Z,0.55
2019-02-16T06:49:53.033Z,0.50
2019-02-16T06:50:54.146Z,0.47
2019-02-16T06:51:55.262Z,0.82
2019-02-16T06:52:56.392Z,0.53
2019-02-16T06:53:57.504Z,1.47
2019-02-16T06:54:58.621Z,0.47
2019-02-16T06:56:01.641Z,0.50
2019-02-16T06:57:04.656Z,0.88
2019-02-16T06:58:05.784Z,1.42
2019-02-16T06:59:06.910Z,0.45
2019-02-16T07:00:09.529Z,0.95
2019-02-16T07:01:10.648Z,0.50
2019-02-16T07:02:12.465Z,0.93
2019-02-16T07:03:13.595Z,0.30
2019-02-16T07:04:14.712Z,0.40
2019-02-16T07:05:15.829Z,0.57
2019-02-16T07:06:16.950Z,0.75
2019-02-16T07:07:18.060Z,1.12
2019-02-16T07:08:19.192Z,0.50
2019-02-16T07:09:20.314Z,1.07
2019-02-16T07:10:21.434Z,0.37
2019-02-16T07:11:22.552Z,0.33
2019-02-16T07:12:23.673Z,0.57
2019-02-16T07:13:24.798Z,0.62
2019-02-16T07:14:25.921Z,0.72
2019-02-16T07:15:27.135Z,0.50
2019-02-16T07:16:38.762Z,0.78
2019-02-16T07:17:44.555Z,0.75
2019-02-16T07:18:47.585Z,0.55
2019-02-16T07:19:50.517Z,1.07
2019-02-16T07:20:51.654Z,0.57
2019-02-16T07:21:52.764Z,3.17
2019-02-16T07:22:53.985Z,1.42
2019-02-16T07:23:55.149Z,0.40
2019-02-16T07:24:56.271Z,0.85
2019-02-16T07:25:57.388Z,1.30
2019-02-16T07:26:58.507Z,1.75
2019-02-16T07:27:59.623Z,0.90
2019-02-16T07:29:00.863Z,0.60
2019-02-16T07:30:02.467Z,0.85
2019-02-16T07:31:03.581Z,1.40
2019-02-16T07:32:04.806Z,0.40
2019-02-16T07:33:05.920Z,0.53
2019-02-16T07:34:07.065Z,0.50
2019-02-16T07:35:08.176Z,0.47
2019-02-16T07:36:09.293Z,0.42
2019-02-16T07:37:10.413Z,0.62
2019-02-16T07:38:11.536Z,1.22
2019-02-16T07:39:12.671Z,1.32
2019-02-16T07:40:13.791Z,2.22
2019-02-16T07:41:14.906Z,0.37
2019-02-16T07:42:16.016Z,0.60
2019-02-16T07:43:19.039Z,0.35
2019-02-16T07:44:30.651Z,0.60
2019-02-16T07:45:36.424Z,0.98
2019-02-16T07:46:39.452Z,1.30
2019-02-16T07:47:48.117Z,0.50
2019-02-16T07:48:53.891Z,0.65
2019-02-16T07:50:05.968Z,0.45
2019-02-16T07:51:25.600Z,0.55
2019-02-16T07:52:43.500Z,0.37
2019-02-16T07:53:46.522Z,1.10
2019-02-16T07:55:05.914Z,0.33
2019-02-16T07:56:08.948Z,0.47
2019-02-16T07:57:14.761Z,0.70
2019-02-16T07:58:26.779Z,0.45
2019-02-16T07:59:35.901Z,0.47
2019-02-16T08:00:53.920Z,0.78
2019-02-16T08:02:02.753Z,0.82
2019-02-16T08:03:08.363Z,0.60
2019-02-16T08:04:11.381Z,0.72
2019-02-16T08:05:14.402Z,0.40
2019-02-16T08:06:17.421Z,0.37
2019-02-16T08:07:35.328Z,0.60
2019-02-16T08:08:38.343Z,0.78
2019-02-16T08:09:59.508Z,0.55
2019-02-16T08:11:05.041Z,1.42
2019-02-16T08:12:10.803Z,0.82
2019-02-16T08:13:16.627Z,0.62
2019-02-16T08:14:25.217Z,0.47
2019-02-16T08:15:28.236Z,1.70
2019-02-16T08:16:31.257Z,0.30
2019-02-16T08:17:34.292Z,0.40
2019-02-16T08:18:55.655Z,1.15
2019-02-16T08:20:04.734Z,0.62
2019-02-16T08:21:07.764Z,0.45
2019-02-16T08:22:19.835Z,0.60
2019-02-16T08:23:22.869Z,1.02
2019-02-16T08:24:42.529Z,1.07
2019-02-16T08:26:00.380Z,0.68
2019-02-16T08:27:09.148Z,1.17
2019-02-16T08:28:18.457Z,0.33
2019-02-16T08:29:21.477Z,1.15
2019-02-16T08:30:27.264Z,0.50
2019-02-16T08:31:38.880Z,0.40
2019-02-16T08:32:53.763Z,1.42
2019-02-16T08:33:56.791Z,0.70
2019-02-16T08:35:08.624Z,0.70
2019-02-16T08:36:14.161Z,1.30
2019-02-16T08:37:17.176Z,3.90
2019-02-16T08:38:22.972Z,3.10
2019-02-16T08:39:25.991Z,1.22
2019-02-16T08:40:31.920Z,1.70
2019-02-16T08:41:52.974Z,1.02
2019-02-16T08:42:55.991Z,1.77
2019-02-16T08:44:15.396Z,0.80
2019-02-16T08:45:18.421Z,0.78
2019-02-16T08:46:21.432Z,1.35
2019-02-16T08:47:24.470Z,0.60
2019-02-16T08:48:42.357Z,1.27
2019-02-16T08:49:45.373Z,0.53
2019-02-16T08:50:50.934Z,0.80
2019-02-16T08:51:53.961Z,1.15
2019-02-16T08:53:05.777Z,0.45
2019-02-16T08:54:26.936Z,1.15
2019-02-16T08:55:32.875Z,1.07
2019-02-16T08:56:42.088Z,0.85
2019-02-16T08:57:53.790Z,0.57
2019-02-16T08:59:02.708Z,1.75
2019-02-16T09:00:16.411Z,1.10
2019-02-16T09:01:19.429Z,1.25
2019-02-16T09:02:25.196Z,0.62
2019-02-16T09:03:44.869Z,0.80
2019-02-16T09:04:56.513Z,0.42
2019-02-16T09:06:02.440Z,0.42
2019-02-16T09:07:08.449Z,1.30
2019-02-16T09:08:14.298Z,0.90
2019-02-16T09:09:23.130Z,0.90
2019-02-16T09:10:31.941Z,0.60
2019-02-16T09:11:40.520Z,0.55
2019-02-16T09:12:46.060Z,0.50
2019-02-16T09:13:49.078Z,0.70
2019-02-16T09:14:58.151Z,0.45
2019-02-16T09:16:07.245Z,0.60
2019-02-16T09:17:13.494Z,1.10
2019-02-16T09:18:16.649Z,0.95
2019-02-16T09:19:25.556Z,0.75
2019-02-16T09:20:34.126Z,1.12
2019-02-16T09:21:43.431Z,0.93
2019-02-16T09:22:55.344Z,1.55
2019-02-16T09:24:07.136Z,0.37
2019-02-16T09:25:18.836Z,1.37
2019-02-16T09:26:21.872Z,0.90
2019-02-16T09:27:30.813Z,2.25
2019-02-16T09:28:39.394Z,1.12
2019-02-16T09:29:42.410Z,0.70
2019-02-16T09:30:57.489Z,0.75
2019-02-16T09:32:03.305Z,1.02
2019-02-16T09:33:09.362Z,0.50
2019-02-16T09:34:12.390Z,0.80
2019-02-16T09:35:17.924Z,0.88
2019-02-16T09:36:29.846Z,1.07
2019-02-16T09:37:49.677Z,1.02
2019-02-16T09:38:52.765Z,0.88
2019-02-16T09:40:12.500Z,1.22
2019-02-16T09:41:18.096Z,0.50
2019-02-16T09:42:21.133Z,0.80
2019-02-16T09:43:40.465Z,1.90
2019-02-16T09:44:43.491Z,1.00
2019-02-16T09:46:03.385Z,0.62
2019-02-16T09:47:18.234Z,0.80
2019-02-16T09:48:37.612Z,0.62
2019-02-16T09:49:56.944Z,0.62
2019-02-16T09:50:59.981Z,0.95
2019-02-16T09:52:20.867Z,0.60
2019-02-16T09:53:29.908Z,0.88
2019-02-16T09:54:44.937Z,1.35
2019-02-16T09:55:56.897Z,1.02
2019-02-16T09:57:05.616Z,0.53
2019-02-16T09:58:20.566Z,0.60
2019-02-16T09:59:23.590Z,0.75
2019-02-16T10:00:32.422Z,0.50
2019-02-16T10:01:35.443Z,0.72
2019-02-16T10:02:38.470Z,0.40
2019-02-16T10:03:50.293Z,0.80
2019-02-16T10:04:53.315Z,0.70
2019-02-16T10:05:59.053Z,0.60
2019-02-16T10:07:14.004Z,1.32
2019-02-16T10:08:17.028Z,0.80
2019-02-16T10:09:25.973Z,1.10
2019-02-16T10:10:29.012Z,0.45
2019-02-16T10:11:34.564Z,1.17
2019-02-16T10:12:40.134Z,0.88
2019-02-16T10:13:59.955Z,1.52
2019-02-16T10:15:02.972Z,0.95
2019-02-16T10:16:17.910Z,3.22
2019-02-16T10:17:21.245Z,0.40
2019-02-16T10:18:30.292Z,1.17
2019-02-16T10:19:45.287Z,1.00
2019-02-16T10:20:53.905Z,0.40
2019-02-16T10:21:59.497Z,1.17
2019-02-16T10:23:05.024Z,0.93
2019-02-16T10:24:23.220Z,0.42
2019-02-16T10:25:32.038Z,0.65
2019-02-16T10:26:35.065Z,0.68
2019-02-16T10:27:54.768Z,1.00
2019-02-16T10:29:03.353Z,1.27
2019-02-16T10:30:24.395Z,2.22
2019-02-16T10:31:30.066Z,1.42
2019-02-16T10:32:33.083Z,0.72
2019-02-16T10:33:38.640Z,0.60
2019-02-16T10:34:59.636Z,1.25
2019-02-16T10:36:08.276Z,0.85
2019-02-16T10:37:28.050Z,0.50
2019-02-16T10:38:36.726Z,2.70
2019-02-16T10:39:42.263Z,0.60
2019-02-16T10:40:51.003Z,0.95
2019-02-16T10:41:56.825Z,0.40
2019-02-16T10:42:59.854Z,1.75
2019-02-16T10:44:08.681Z,1.05
2019-02-16T10:45:20.588Z,0.60
2019-02-16T10:46:23.611Z,1.87
2019-02-16T10:47:35.183Z,0.70
2019-02-16T10:48:41.236Z,1.70
2019-02-16T10:50:02.396Z,1.67
2019-02-16T10:51:17.268Z,1.27
2019-02-16T10:52:23.068Z,1.00
2019-02-16T10:53:31.665Z,1.15
2019-02-16T10:54:40.565Z,0.70
2019-02-16T10:55:52.179Z,1.40
2019-02-16T10:56:55.204Z,0.57
2019-02-16T10:58:06.972Z,1.52
2019-02-16T10:59:10.026Z,2.67
2019-02-16T11:00:13.145Z,0.60
2019-02-16T11:01:16.160Z,1.25
2019-02-16T11:02:19.184Z,1.55
2019-02-16T11:03:27.779Z,1.82
2019-02-16T11:04:38.333Z,1.12
2019-02-16T11:05:41.568Z,0.80
2019-02-16T11:07:02.727Z,1.42
2019-02-16T11:08:08.512Z,1.37
2019-02-16T11:09:11.538Z,0.80
2019-02-16T11:10:20.918Z,1.37
2019-02-16T11:11:29.520Z,1.00
2019-02-16T11:12:32.541Z,1.45
2019-02-16T11:13:47.712Z,2.52
2019-02-16T11:15:02.556Z,1.02
2019-02-16T11:16:07.390Z,0.65
2019-02-16T11:17:19.459Z,0.70
2019-02-16T11:18:38.819Z,0.60
2019-02-16T11:19:46.138Z,2.02
2019-02-16T11:20:49.173Z,2.72
2019-02-16T11:22:00.929Z,2.05
2019-02-16T11:23:06.749Z,1.20
2019-02-16T11:24:18.621Z,1.17
2019-02-16T11:25:27.617Z,1.65
2019-02-16T11:26:30.680Z,0.98
2019-02-16T11:27:33.702Z,0.60
2019-02-16T11:28:48.584Z,0.93
2019-02-16T11:29:51.602Z,1.10
2019-02-16T11:31:00.420Z,0.62
2019-02-16T11:32:19.934Z,1.30
2019-02-16T11:33:37.820Z,0.50
2019-02-16T11:34:43.636Z,1.02
2019-02-16T11:36:03.324Z,0.85
2019-02-16T11:37:06.347Z,0.82
2019-02-16T11:38:20.959Z,1.30
2019-02-16T11:39:23.985Z,1.20
2019-02-16T11:40:43.812Z,1.22
2019-02-16T11:41:46.833Z,1.52
2019-02-16T11:43:06.567Z,0.90
2019-02-16T11:44:21.298Z,1.85
2019-02-16T11:45:33.391Z,1.00
2019-02-16T11:46:48.215Z,0.93
2019-02-16T11:47:53.898Z,1.55
2019-02-16T11:49:02.436Z,1.90
2019-02-16T11:50:19.056Z,1.07
2019-02-16T11:51:27.997Z,1.17
2019-02-16T11:52:46.098Z,1.65
2019-02-16T11:53:57.731Z,0.72
2019-02-16T11:55:03.414Z,1.07
2019-02-16T11:56:06.439Z,1.90
2019-02-16T11:57:26.196Z,0.70
2019-02-16T11:58:45.713Z,1.20
2019-02-16T11:59:57.820Z,0.93
2019-02-16T12:01:00.839Z,0.90
2019-02-16T12:02:06.786Z,0.80
2019-02-16T12:03:15.635Z,1.00
2019-02-16T12:04:18.660Z,0.55
2019-02-16T12:05:21.687Z,0.82
2019-02-16T12:06:30.645Z,0.95
2019-02-16T12:07:33.672Z,0.53
2019-02-16T12:08:39.316Z,0.57
2019-02-16T12:10:00.235Z,1.30
2019-02-16T12:11:05.738Z,1.02
2019-02-16T12:12:25.075Z,0.80
2019-02-16T12:13:28.089Z,0.88
2019-02-16T12:14:43.131Z,0.60
2019-02-16T12:15:46.153Z,0.37
2019-02-16T12:16:52.159Z,0.68
2019-02-16T12:17:58.132Z,1.10
2019-02-16T12:19:04.000Z,0.90
2019-02-16T12:20:23.533Z,0.78
2019-02-16T12:21:39.313Z,1.05
2019-02-16T12:22:42.342Z,1.10
2019-02-16T12:23:54.203Z,1.10
2019-02-16T12:25:05.329Z,1.00
2019-02-16T12:26:04.807Z,2.47
2019-02-16T12:27:13.417Z,0.53
2019-02-16T12:28:33.185Z,0.50
2019-02-16T12:29:45.009Z,0.60
2019-02-16T12:30:56.603Z,0.53
2019-02-16T12:31:59.641Z,0.90
2019-02-16T12:33:02.673Z,2.05
2019-02-16T12:34:24.071Z,0.50
2019-02-16T12:35:27.089Z,1.07
2019-02-16T12:36:35.740Z,0.88
2019-02-16T12:37:47.656Z,1.15
2019-02-16T12:38:53.349Z,1.40
2019-02-16T12:40:05.067Z,2.77
2019-02-16T12:41:24.867Z,0.55
2019-02-16T12:42:36.499Z,1.07
2019-02-16T12:43:42.030Z,0.93
2019-02-16T12:44:53.924Z,2.35
2019-02-16T12:45:59.696Z,0.80
2019-02-16T12:47:08.752Z,0.50
2019-02-16T12:48:11.820Z,1.35
2019-02-16T12:49:17.360Z,0.88
2019-02-16T12:50:25.946Z,1.25
2019-02-16T12:51:35.010Z,0.90
2019-02-16T12:52:40.606Z,1.62
2019-02-16T12:53:46.145Z,1.57
2019-02-16T12:54:54.943Z,0.68
2019-02-16T12:55:57.961Z,0.57
2019-02-16T12:57:00.980Z,0.88
2019-02-16T12:58:04.008Z,0.70
2019-02-16T12:59:07.031Z,1.02
2019-02-16T13:00:19.974Z,1.30
2019-02-16T13:01:34.865Z,1.15
2019-02-16T13:02:37.921Z,0.98
2019-02-16T13:03:58.809Z,0.68
2019-02-16T13:05:08.109Z,0.88
2019-02-16T13:06:19.984Z,1.55
2019-02-16T13:07:29.017Z,1.35
2019-02-16T13:08:37.653Z,1.27
2019-02-16T13:09:46.357Z,1.55
2019-02-16T13:10:55.414Z,0.55
2019-02-16T13:12:01.204Z,1.35
2019-02-16T13:13:10.110Z,1.50
2019-02-16T13:14:15.757Z,1.02
2019-02-16T13:15:35.112Z,3.00
2019-02-16T13:16:40.661Z,1.10
2019-02-16T13:17:43.685Z,0.65
2019-02-16T13:18:46.719Z,1.30
2019-02-16T13:19:55.553Z,1.17
2019-02-16T13:21:04.494Z,0.82
2019-02-16T13:22:07.524Z,1.25
2019-02-16T13:23:25.742Z,0.55
2019-02-16T13:24:28.777Z,1.65
2019-02-16T13:25:34.300Z,0.45
2019-02-16T13:26:37.321Z,0.70
2019-02-16T13:27:46.295Z,1.02
2019-02-16T13:28:51.864Z,0.93
2019-02-16T13:29:54.931Z,0.60
2019-02-16T13:31:00.708Z,1.25
2019-02-16T13:32:03.726Z,1.02
2019-02-16T13:33:23.123Z,1.57
2019-02-16T13:34:35.121Z,3.22
2019-02-16T13:35:40.704Z,4.15
2019-02-16T13:36:43.732Z,2.17
2019-02-16T13:37:52.567Z,5.95
2019-02-16T13:38:58.480Z,3.52
2019-02-16T13:40:19.729Z,2.92
2019-02-16T13:41:34.628Z,6.28
2019-02-16T13:42:37.655Z,10.05
2019-02-16T13:43:43.189Z,5.60
2019-02-16T13:44:51.804Z,3.05
2019-02-16T13:46:09.787Z,2.22
2019-02-16T13:47:15.573Z,2.35
2019-02-16T13:48:18.592Z,8.00
2019-02-16T13:49:24.574Z,5.55
2019-02-16T13:50:30.111Z,6.92
2019-02-16T13:51:51.651Z,2.67
2019-02-16T13:53:09.584Z,7.78
2019-02-16T13:54:12.626Z,4.75
2019-02-16T13:55:21.693Z,2.83
2019-02-16T13:56:24.721Z,4.15
2019-02-16T13:57:27.753Z,1.70
2019-02-16T13:58:30.786Z,4.53
2019-02-16T13:59:45.652Z,1.42
2019-02-16T14:00:50.794Z,1.60
2019-02-16T14:02:05.199Z,2.58
2019-02-16T14:03:17.097Z,3.55
2019-02-16T14:04:20.147Z,1.75
2019-02-16T14:05:25.934Z,1.22
2019-02-16T14:06:34.725Z,2.30
2019-02-16T14:07:40.598Z,1.57
2019-02-16T14:08:59.976Z,2.67
2019-02-16T14:10:08.590Z,0.82
2019-02-16T14:11:11.617Z,0.98
2019-02-16T14:12:29.514Z,1.30
2019-02-16T14:13:35.304Z,2.20
2019-02-16T14:14:38.343Z,0.93
2019-02-16T14:15:56.140Z,1.20
2019-02-16T14:16:59.161Z,1.67
2019-02-16T14:18:00.414Z,4.55
2019-02-16T14:19:01.573Z,2.37
2019-02-16T14:20:04.797Z,0.98
2019-02-16T14:21:06.017Z,1.67
2019-02-16T14:22:07.151Z,2.22